Regent, North Dakota
Current Conditions -  °F | °C
As of 7:53 PM on Friday 19 Dec 2014 (Local Time) from KHEI Reporting Station
Clear Clear  
Wind Chill: -6°   Ceiling: Unl
Heat Index: -6°   Visibility: 10mi
Dew Point: -8°   Wind: 0mph
Humidity: 85%   Direction: NA
Pressure: 29.91"   Gusts: NA
Location:  46.42°N, 102.56°W
Report Text: KHEI 200253Z AUTO 00000KT 10SM CLR M06/M08 A2991 RMK AO2 SLP166 T10561078 50000
Loading
Personal Weather Stations






























Interactive Weather Map New forecast layout! Learn more

10-Day Weather Forecast

Advertisements
Track Severe Weather on mobile